Share

Cornettsville, KY (41731)

Kona/PayneGap (KKYJENKI2) Elev 1322 ft | 37.15 °N, 82.71 °W | Change Station
Active Advisory: Special Statement

Current weather conditions updated 49 seconds ago

Clear
Clear
72.9 °F
Feels Like 76 °F
N
1.6
Wind Variable Wind from WNW
Sunrise 6:52 AM
Sunset 8:10 PM
Moon Waning Gibbous

Tomorrow is forecast to be Cooler than today.

Pressure 30.14 in
Visibility 10.0 miles
Clouds Clear
Heat Index 76 °F
Dew Point 40 °F
Humidity 30%
Rainfall 0.00 in
Snow Depth Not available.
UV 7 out of 16
Pollen 10.00 out of 12
Air Quality Not available.
Flu Activity Sporadic
METAR KI35 192015Z AUTO 03003KT 10SM CLR 22/00 A3014 RMK AO1

More Conditions Fewer Conditions

Pressure 30.14 in
Visibility 10.0 miles
Clouds Clear
Heat Index 76 °F
Dew Point 40 °F
Humidity 30%
Rainfall 0.00 in
Snow Depth Not available.
UV 7 out of 16
Pollen 10.00 out of 12
Air Quality Not available.
Flu Activity Sporadic
METAR KI35 192015Z AUTO 03003KT 10SM CLR 22/00 A3014 RMK AO1

More Conditions Fewer Conditions

10-Day Weather Forecast

Almanac

Astronomy

Apr. 19, 2014 Rise Set
Actual Time 6:52 AM EDT 8:10 PM EDT
Civil Twilight 6:25 AM EDT 8:37 PM EDT
Nautical Twilight 5:52 AM EDT 9:10 PM EDT
Astronomical Twilight 5:19 AM EDT 9:44 PM EDT
Moon No Moon Rise 10:12 AM EDT
Length of Visible Light 14h 12m
Length of Day
13h 18m
Tomorrow will be 2m 12s longer.
Waning Gibbous, 77% of the Moon is Illuminated
Today
Waning Gibbous
Apr 22
Last Quarter
Apr 29
New
May 6
First Quarter
May 14
Full

Today's Extremes

State Highs State Lows

Community

  • Skirting the Horizon
    Skirting the Horizon
  • Piriapolis
    Piriapolis
  • A Glorious Morning
    A Glorious Morning
  • Tender Rays Of Hope
    Tender Rays Of Hope
  • Bleeding Hearts
    Bleeding Hearts

WunderPhotos

Upload Photos

1,702,892 photos uploaded!

WunderBlogs® & News

Nearby

Snow Depth

Station Depth Elevation
No new snow has been reported.

Coastal Water Temperatures

Place Temperature
No Stations Reporting

Earthquake Activity

City Distance Mag. Time & Date
Englewood, Tennessee 140 miles 2.8 10:34 PM EDT
2014-04-12
Minimum magnitude displayed is 2.5.

Nearby Weather Stations

Station Location Temp. Heat Index Dew Point Humidity Wind Precip. Elev Updated Type
Kona/PayneGap, Jenkins, KY 72.9 °F 76 °F 40 °F 30% WNW  at  1.6 mph - / hr 1322 ft 4:41 PM EDT Normal
RAWS PRAWS 7 KY, Jenkins, KY 71 °F 75 °F 31 °F 23% West  at  2 mph 0.00 in / hr 3018 ft 2:24 PM EDT MADIS
KYMN Harlan 24 E KY, Lynch, KY 61 °F - 32 °F 34% NNE  at  3 mph 0.00 in / hr 4031 ft 4:00 PM EDT MADIS

Show More Stations Show Fewer Stations

What do you think?

We're not finished. Please let us know what you like, what you don't like, and what you are still missing.